createdAt,value
2018-01-30T00:00:53.417Z,5.84
2018-01-30T00:01:59.558Z,5.73
2018-01-30T00:03:05.692Z,5.63
2018-01-30T00:04:11.869Z,5.62
2018-01-30T00:05:18.452Z,5.66
2018-01-30T00:06:24.096Z,5.67
2018-01-30T00:07:30.753Z,5.65
2018-01-30T00:08:36.879Z,5.67
2018-01-30T00:09:42.567Z,5.74
2018-01-30T00:10:48.657Z,5.69
2018-01-30T00:11:54.795Z,5.59
2018-01-30T00:13:00.931Z,5.57
2018-01-30T00:14:07.087Z,5.61
2018-01-30T00:15:13.692Z,5.56
2018-01-30T00:16:19.350Z,5.56
2018-01-30T00:17:25.463Z,5.53
2018-01-30T00:18:31.597Z,5.51
2018-01-30T00:19:37.753Z,5.46
2018-01-30T00:20:43.871Z,5.37
2018-01-30T00:21:49.984Z,5.26
2018-01-30T00:22:56.128Z,5.18
2018-01-30T00:24:02.276Z,5.15
2018-01-30T00:25:08.373Z,5.13
2018-01-30T00:26:14.989Z,5.10
2018-01-30T00:27:20.627Z,5.23
2018-01-30T00:28:26.759Z,5.29
2018-01-30T00:29:32.906Z,5.24
2018-01-30T00:30:39.048Z,5.20
2018-01-30T00:31:45.127Z,5.24
2018-01-30T00:32:51.252Z,5.28
2018-01-30T00:33:57.374Z,5.29
2018-01-30T00:35:03.519Z,5.24
2018-01-30T00:36:09.626Z,5.21
2018-01-30T00:37:15.744Z,5.25
2018-01-30T00:38:21.855Z,5.20
2018-01-30T00:39:28.008Z,5.18
2018-01-30T00:40:34.126Z,5.16
2018-01-30T00:41:40.236Z,5.17
2018-01-30T00:42:46.367Z,5.16
2018-01-30T00:43:52.466Z,5.11
2018-01-30T00:44:58.620Z,5.06
2018-01-30T00:46:04.709Z,5.01
2018-01-30T00:47:10.830Z,4.96
2018-01-30T00:48:16.953Z,4.94
2018-01-30T00:49:23.180Z,4.86
2018-01-30T00:50:29.182Z,4.79
2018-01-30T00:51:35.488Z,4.75
2018-01-30T00:52:41.414Z,4.82
2018-01-30T00:53:48.031Z,4.86
2018-01-30T00:54:53.662Z,4.83
2018-01-30T00:55:59.770Z,4.87
2018-01-30T00:57:05.863Z,4.91
2018-01-30T00:58:11.983Z,5.00
2018-01-30T00:59:18.592Z,5.01
2018-01-30T01:00:24.239Z,4.94
2018-01-30T01:01:30.810Z,4.89
2018-01-30T01:02:36.425Z,4.75
2018-01-30T01:03:42.545Z,4.73
2018-01-30T01:04:48.678Z,4.74
2018-01-30T01:05:54.763Z,4.74
2018-01-30T01:07:00.876Z,4.70
2018-01-30T01:08:06.992Z,4.73
2018-01-30T01:09:13.109Z,4.80
2018-01-30T01:10:19.232Z,4.85
2018-01-30T01:11:25.328Z,4.89
2018-01-30T01:12:31.430Z,4.88
2018-01-30T01:13:37.549Z,4.79
2018-01-30T01:14:43.687Z,4.74
2018-01-30T01:15:49.756Z,4.72
2018-01-30T01:16:55.874Z,4.76
2018-01-30T01:18:02.001Z,4.81
2018-01-30T01:19:08.093Z,4.77
2018-01-30T01:20:14.219Z,4.67
2018-01-30T01:21:20.307Z,4.61
2018-01-30T01:22:26.412Z,4.53
2018-01-30T01:23:32.517Z,4.45
2018-01-30T01:24:38.647Z,4.39
2018-01-30T01:25:44.728Z,4.40
2018-01-30T01:26:50.828Z,4.40
2018-01-30T01:27:56.932Z,4.34
2018-01-30T01:29:03.048Z,4.28
2018-01-30T01:30:09.156Z,4.18
2018-01-30T01:31:15.250Z,4.11
2018-01-30T01:32:21.346Z,4.08
2018-01-30T01:33:27.448Z,4.06
2018-01-30T01:34:33.559Z,3.99
2018-01-30T01:35:40.135Z,3.88
2018-01-30T01:36:45.730Z,3.97
2018-01-30T01:37:51.830Z,4.19
2018-01-30T01:38:57.935Z,4.35
2018-01-30T01:40:04.070Z,4.46
2018-01-30T01:41:10.118Z,4.44
2018-01-30T01:42:16.211Z,4.47
2018-01-30T01:43:22.320Z,4.47
2018-01-30T01:44:28.416Z,4.40
2018-01-30T01:45:34.547Z,4.42
2018-01-30T01:46:40.615Z,4.38
2018-01-30T01:47:46.709Z,4.31
2018-01-30T01:48:52.796Z,4.32
2018-01-30T01:49:58.924Z,4.35
2018-01-30T01:51:04.987Z,4.28
2018-01-30T01:52:11.159Z,4.31
2018-01-30T01:53:17.190Z,4.26
2018-01-30T01:54:23.296Z,4.13
2018-01-30T01:55:29.404Z,3.97
2018-01-30T01:56:35.467Z,3.80
2018-01-30T01:57:41.566Z,3.66
2018-01-30T01:58:47.663Z,3.62
2018-01-30T01:59:53.799Z,3.56
2018-01-30T02:00:59.855Z,3.50
2018-01-30T02:02:05.945Z,3.62
2018-01-30T02:03:12.532Z,3.72
2018-01-30T02:04:18.119Z,3.86
2018-01-30T02:05:24.226Z,3.96
2018-01-30T02:06:30.311Z,4.01
2018-01-30T02:07:36.391Z,4.01
2018-01-30T02:08:42.477Z,3.97
2018-01-30T02:09:48.594Z,3.91
2018-01-30T02:10:54.665Z,3.95
2018-01-30T02:12:00.758Z,3.94
2018-01-30T02:13:07.174Z,3.89
2018-01-30T02:14:12.943Z,3.83
2018-01-30T02:15:19.045Z,3.73
2018-01-30T02:16:25.102Z,3.64
2018-01-30T02:17:31.214Z,3.59
2018-01-30T02:18:37.775Z,3.68
2018-01-30T02:19:43.370Z,3.80
2018-01-30T02:20:49.489Z,3.95
2018-01-30T02:21:56.051Z,4.03
2018-01-30T02:23:01.635Z,4.00
2018-01-30T02:24:07.740Z,4.00
2018-01-30T02:25:14.329Z,4.02
2018-01-30T02:26:19.904Z,4.06
2018-01-30T02:27:26.492Z,4.06
2018-01-30T02:28:32.081Z,4.07
2018-01-30T02:29:38.180Z,4.06
2018-01-30T02:30:44.286Z,4.00
2018-01-30T02:31:50.360Z,3.93
2018-01-30T02:32:56.449Z,3.88
2018-01-30T02:34:02.540Z,3.79
2018-01-30T02:35:08.639Z,3.69
2018-01-30T02:36:14.735Z,3.63
2018-01-30T02:37:20.805Z,3.57
2018-01-30T02:38:26.895Z,3.56
2018-01-30T02:39:32.970Z,3.53
2018-01-30T02:40:39.083Z,3.46
2018-01-30T02:41:45.166Z,3.46
2018-01-30T02:42:51.727Z,3.50
2018-01-30T02:43:57.335Z,3.58
2018-01-30T02:45:03.411Z,3.69
2018-01-30T02:46:09.527Z,3.73
2018-01-30T02:47:15.583Z,3.81
2018-01-30T02:48:21.664Z,3.90
2018-01-30T02:49:27.751Z,3.96
2018-01-30T02:50:33.838Z,3.99
2018-01-30T02:51:39.934Z,3.98
2018-01-30T02:52:46.011Z,4.00
2018-01-30T02:53:52.160Z,4.02
2018-01-30T02:54:58.177Z,4.03
2018-01-30T02:56:04.291Z,4.04
2018-01-30T02:57:10.365Z,4.04
2018-01-30T02:58:16.958Z,4.07
2018-01-30T02:59:22.540Z,4.05
2018-01-30T03:00:28.628Z,4.00
2018-01-30T03:01:34.741Z,3.89
2018-01-30T03:02:40.839Z,3.75
2018-01-30T03:03:46.898Z,3.60
2018-01-30T03:04:52.983Z,3.48
2018-01-30T03:05:59.095Z,3.38
2018-01-30T03:07:05.152Z,3.34
2018-01-30T03:08:11.258Z,3.38
2018-01-30T03:09:17.324Z,3.50
2018-01-30T03:10:23.908Z,3.63
2018-01-30T03:11:29.516Z,3.80
2018-01-30T03:12:35.599Z,3.91
2018-01-30T03:13:41.680Z,4.00
2018-01-30T03:14:47.756Z,3.97
2018-01-30T03:15:53.849Z,3.87
2018-01-30T03:16:59.963Z,3.86
2018-01-30T03:18:06.017Z,3.89
2018-01-30T03:19:12.122Z,3.94
2018-01-30T03:20:18.208Z,3.95
2018-01-30T03:21:24.497Z,3.95
2018-01-30T03:22:30.855Z,3.99
2018-01-30T03:23:36.943Z,4.01
2018-01-30T03:24:42.540Z,3.99
2018-01-30T03:25:48.627Z,3.92
2018-01-30T03:26:54.727Z,3.82
2018-01-30T03:28:00.798Z,3.74
2018-01-30T03:29:06.905Z,3.66
2018-01-30T03:30:12.974Z,3.59
2018-01-30T03:31:19.044Z,3.54
2018-01-30T03:32:25.151Z,3.59
2018-01-30T03:33:31.228Z,3.66
2018-01-30T03:34:37.297Z,3.70
2018-01-30T03:35:43.395Z,3.67
2018-01-30T03:36:49.481Z,3.55
2018-01-30T03:37:56.167Z,3.55
2018-01-30T03:39:01.629Z,3.55
2018-01-30T03:40:07.715Z,3.56
2018-01-30T03:41:13.792Z,3.55
2018-01-30T03:42:19.927Z,3.47
2018-01-30T03:43:25.956Z,3.36
2018-01-30T03:44:32.046Z,3.23
2018-01-30T03:45:38.433Z,3.05
2018-01-30T03:46:44.201Z,2.86
2018-01-30T03:47:50.297Z,2.73
2018-01-30T03:48:56.361Z,2.66
2018-01-30T03:50:02.426Z,2.61
2018-01-30T03:51:08.501Z,2.72
2018-01-30T03:52:14.582Z,2.86
2018-01-30T03:53:20.673Z,3.05
2018-01-30T03:54:26.748Z,3.16
2018-01-30T03:55:32.792Z,3.20
2018-01-30T03:56:38.870Z,3.23
2018-01-30T03:57:44.960Z,3.17
2018-01-30T03:58:51.009Z,3.11
2018-01-30T03:59:57.081Z,3.10
2018-01-30T04:01:03.640Z,3.04
2018-01-30T04:02:09.232Z,2.94
2018-01-30T04:03:15.316Z,2.96
2018-01-30T04:04:21.366Z,2.94
2018-01-30T04:05:27.434Z,2.80
2018-01-30T04:06:33.498Z,2.70
2018-01-30T04:07:39.572Z,2.61
2018-01-30T04:08:45.664Z,2.59
2018-01-30T04:09:51.703Z,2.55
2018-01-30T04:10:57.785Z,2.47
2018-01-30T04:12:03.831Z,2.37
2018-01-30T04:13:09.915Z,2.24
2018-01-30T04:14:15.969Z,2.12
2018-01-30T04:15:22.037Z,2.01
2018-01-30T04:16:29.087Z,1.91
2018-01-30T04:17:34.162Z,1.78
2018-01-30T04:18:40.240Z,1.69
2018-01-30T04:19:46.274Z,1.62
2018-01-30T04:20:52.318Z,1.54
2018-01-30T04:21:58.377Z,1.48
2018-01-30T04:23:04.455Z,1.43
2018-01-30T04:24:10.493Z,1.34
2018-01-30T04:25:16.542Z,1.28
2018-01-30T04:26:22.591Z,1.23
2018-01-30T04:27:28.641Z,1.14
2018-01-30T04:28:34.712Z,1.20
2018-01-30T04:29:40.770Z,1.24
2018-01-30T04:30:46.786Z,1.21
2018-01-30T04:31:52.830Z,1.15
2018-01-30T04:32:58.874Z,1.06
2018-01-30T04:34:04.948Z,0.97
2018-01-30T04:35:10.959Z,0.91
2018-01-30T04:36:17.006Z,0.87
2018-01-30T04:37:23.537Z,0.81
2018-01-30T04:38:29.115Z,0.77
2018-01-30T04:39:35.133Z,0.78
2018-01-30T04:40:41.174Z,0.79
2018-01-30T04:41:47.214Z,0.85
2018-01-30T04:42:53.242Z,0.84
2018-01-30T04:43:59.309Z,0.74
2018-01-30T04:45:05.335Z,0.74
2018-01-30T04:46:11.372Z,0.70
2018-01-30T04:47:17.397Z,0.66
2018-01-30T04:48:23.436Z,0.59
2018-01-30T04:49:29.489Z,0.47
2018-01-30T04:50:35.513Z,0.38
2018-01-30T04:51:41.535Z,0.40
2018-01-30T04:52:48.149Z,0.39
2018-01-30T04:53:53.627Z,0.37
2018-01-30T04:54:59.640Z,0.29
2018-01-30T04:56:05.659Z,0.18
2018-01-30T04:57:11.682Z,0.17
2018-01-30T04:58:17.896Z,0.19
2018-01-30T04:59:23.752Z,0.26
2018-01-30T05:00:29.775Z,0.32
2018-01-30T05:01:35.789Z,0.36
2018-01-30T05:02:41.812Z,0.30
2018-01-30T05:03:47.832Z,0.20
2018-01-30T05:04:53.876Z,0.13
2018-01-30T05:06:00.378Z,0.05
2018-01-30T05:07:05.911Z,0.05
2018-01-30T05:08:11.914Z,0.02
2018-01-30T05:09:17.970Z,-0.05
2018-01-30T05:10:24.460Z,-0.16
2018-01-30T05:11:30.002Z,-0.23
2018-01-30T05:12:36.002Z,-0.22
2018-01-30T05:13:42.011Z,-0.19
2018-01-30T05:14:48.060Z,-0.17
2018-01-30T05:15:54.035Z,-0.21
2018-01-30T05:17:00.138Z,-0.18
2018-01-30T05:18:06.562Z,-0.08
2018-01-30T05:19:12.152Z,-0.10
2018-01-30T05:20:18.121Z,-0.09
2018-01-30T05:21:24.314Z,-0.12
2018-01-30T05:22:30.140Z,-0.20
2018-01-30T05:23:36.143Z,-0.30
2018-01-30T05:24:42.191Z,-0.39
2018-01-30T05:25:48.168Z,-0.42
2018-01-30T05:26:54.175Z,-0.46
2018-01-30T05:28:00.190Z,-0.51
2018-01-30T05:29:06.202Z,-0.52
2018-01-30T05:30:12.245Z,-0.57
2018-01-30T05:31:18.209Z,-0.55
2018-01-30T05:32:24.237Z,-0.57
2018-01-30T05:33:30.228Z,-0.58
2018-01-30T05:34:36.252Z,-0.58
2018-01-30T05:35:42.282Z,-0.62
2018-01-30T05:36:48.248Z,-0.66
2018-01-30T05:37:54.254Z,-0.62
2018-01-30T05:39:00.281Z,-0.63
2018-01-30T05:40:06.298Z,-0.68
2018-01-30T05:41:12.263Z,-0.70
2018-01-30T05:42:18.326Z,-0.68
2018-01-30T05:43:24.286Z,-0.65
2018-01-30T05:44:30.808Z,-0.62
2018-01-30T05:45:36.317Z,-0.67
2018-01-30T05:46:42.277Z,-0.74
2018-01-30T05:47:48.286Z,-0.71
2018-01-30T05:48:54.468Z,-0.68
2018-01-30T05:50:00.278Z,-0.68
2018-01-30T05:51:06.304Z,-0.66
2018-01-30T05:52:12.279Z,-0.67
2018-01-30T05:53:18.291Z,-0.72
2018-01-30T05:54:25.281Z,-0.78
2018-01-30T05:55:30.306Z,-0.73
2018-01-30T05:56:36.298Z,-0.74
2018-01-30T05:57:42.786Z,-0.82
2018-01-30T05:58:48.786Z,-0.87
2018-01-30T05:59:54.283Z,-0.90
2018-01-30T06:01:00.305Z,-0.93
2018-01-30T06:02:06.265Z,-0.98
2018-01-30T06:03:12.281Z,-1.03
2018-01-30T06:04:18.760Z,-1.09
2018-01-30T06:05:24.266Z,-1.07
2018-01-30T06:06:30.276Z,-1.09
2018-01-30T06:07:36.263Z,-1.15
2018-01-30T06:08:42.268Z,-1.19
2018-01-30T06:09:48.781Z,-1.14
2018-01-30T06:10:54.256Z,-1.12
2018-01-30T06:12:00.231Z,-1.06
2018-01-30T06:13:06.233Z,-0.90
2018-01-30T06:14:12.212Z,-0.91
2018-01-30T06:15:18.224Z,-0.96
2018-01-30T06:16:24.215Z,-1.03
2018-01-30T06:17:30.192Z,-1.09
2018-01-30T06:18:36.177Z,-1.15
2018-01-30T06:19:42.178Z,-1.23
2018-01-30T06:20:48.184Z,-1.34
2018-01-30T06:21:54.161Z,-1.37
2018-01-30T06:23:00.143Z,-1.37
2018-01-30T06:24:06.126Z,-1.37
2018-01-30T06:25:12.112Z,-1.39
2018-01-30T06:26:18.130Z,-1.36
2018-01-30T06:27:24.156Z,-1.33
2018-01-30T06:28:30.142Z,-1.36
2018-01-30T06:29:36.141Z,-1.40
2018-01-30T06:30:42.071Z,-1.41
2018-01-30T06:31:48.038Z,-1.45
2018-01-30T06:32:54.034Z,-1.47
2018-01-30T06:34:00.016Z,-1.50
2018-01-30T06:35:05.985Z,-1.47
2018-01-30T06:36:12.492Z,-1.48
2018-01-30T06:37:17.974Z,-1.48
2018-01-30T06:38:24.429Z,-1.52
2018-01-30T06:39:29.915Z,-1.57
2018-01-30T06:40:35.895Z,-1.60
2018-01-30T06:41:41.897Z,-1.67
2018-01-30T06:42:47.851Z,-1.68
2018-01-30T06:43:54.346Z,-1.63
2018-01-30T06:45:00.306Z,-1.59
2018-01-30T06:46:05.817Z,-1.58
2018-01-30T06:47:11.786Z,-1.54
2018-01-30T06:48:17.757Z,-1.47
2018-01-30T06:49:23.738Z,-1.31
2018-01-30T06:50:29.720Z,-1.10
2018-01-30T06:51:35.727Z,-1.01
2018-01-30T06:52:41.696Z,-1.00
2018-01-30T06:53:47.675Z,-1.00
2018-01-30T06:54:53.668Z,-1.01
2018-01-30T06:55:59.668Z,-1.02
2018-01-30T06:57:05.633Z,-1.03
2018-01-30T06:58:12.142Z,-1.06
2018-01-30T06:59:17.597Z,-1.05
2018-01-30T07:00:23.781Z,-1.04
2018-01-30T07:01:29.597Z,-1.05
2018-01-30T07:02:35.562Z,-1.05
2018-01-30T07:03:42.040Z,-0.96
2018-01-30T07:04:47.547Z,-0.84
2018-01-30T07:05:53.535Z,-0.70
2018-01-30T07:06:59.511Z,-0.62
2018-01-30T07:08:05.496Z,-0.55
2018-01-30T07:09:11.485Z,-0.47
2018-01-30T07:10:17.984Z,-0.43
2018-01-30T07:11:23.481Z,-0.37
2018-01-30T07:12:29.954Z,-0.27
2018-01-30T07:13:35.936Z,-0.18
2018-01-30T07:14:41.465Z,-0.23
2018-01-30T07:15:47.915Z,-0.35
2018-01-30T07:16:53.963Z,-0.41
2018-01-30T07:17:59.909Z,-0.33
2018-01-30T07:19:05.418Z,-0.20
2018-01-30T07:20:11.403Z,-0.15
2018-01-30T07:21:17.434Z,-0.02
2018-01-30T07:22:23.394Z,0.10
2018-01-30T07:23:29.400Z,0.21
2018-01-30T07:24:35.400Z,0.30
2018-01-30T07:25:41.403Z,0.31
2018-01-30T07:26:47.914Z,0.33
2018-01-30T07:27:53.415Z,0.40
2018-01-30T07:28:59.910Z,0.46
2018-01-30T07:30:05.406Z,0.57
2018-01-30T07:31:11.439Z,0.58
2018-01-30T07:32:17.423Z,0.52
2018-01-30T07:33:23.428Z,0.43
2018-01-30T07:34:29.420Z,0.39
2018-01-30T07:35:35.436Z,0.38
2018-01-30T07:36:41.467Z,0.35
2018-01-30T07:37:47.453Z,0.37
2018-01-30T07:38:53.463Z,0.36
2018-01-30T07:39:59.472Z,0.35
2018-01-30T07:41:05.510Z,0.26
2018-01-30T07:42:11.482Z,0.23
2018-01-30T07:43:17.979Z,0.31
2018-01-30T07:44:23.508Z,0.34
2018-01-30T07:45:30.518Z,0.35
2018-01-30T07:46:35.542Z,0.31
2018-01-30T07:47:41.524Z,0.34
2018-01-30T07:48:47.539Z,0.34
2018-01-30T07:49:54.036Z,0.31
2018-01-30T07:51:00.072Z,0.28
2018-01-30T07:52:06.140Z,0.29
2018-01-30T07:53:11.556Z,0.28
2018-01-30T07:54:17.577Z,0.30
2018-01-30T07:55:23.582Z,0.32
2018-01-30T07:56:30.175Z,0.39
2018-01-30T07:57:35.611Z,0.44
2018-01-30T07:58:42.144Z,0.44
2018-01-30T07:59:47.613Z,0.41
2018-01-30T08:00:53.640Z,0.50
2018-01-30T08:02:00.163Z,0.58
2018-01-30T08:03:05.649Z,0.57
2018-01-30T08:04:11.671Z,0.59
2018-01-30T08:05:17.674Z,0.63
2018-01-30T08:06:24.207Z,0.72
2018-01-30T08:07:30.199Z,0.82
2018-01-30T08:08:35.723Z,0.90
2018-01-30T08:09:42.225Z,0.96
2018-01-30T08:10:47.754Z,0.95
2018-01-30T08:11:54.299Z,0.99
2018-01-30T08:12:59.791Z,1.05
2018-01-30T08:14:06.310Z,1.09
2018-01-30T08:15:12.316Z,1.15
2018-01-30T08:16:18.369Z,1.19
2018-01-30T08:17:23.861Z,1.23
2018-01-30T08:18:30.377Z,1.23
2018-01-30T08:19:35.919Z,1.23
2018-01-30T08:20:41.955Z,1.24
2018-01-30T08:21:47.981Z,1.29
2018-01-30T08:22:54.012Z,1.33
2018-01-30T08:24:00.510Z,1.36
2018-01-30T08:25:06.040Z,1.47
2018-01-30T08:26:12.170Z,1.66
2018-01-30T08:27:18.155Z,1.88
2018-01-30T08:28:24.127Z,2.03
2018-01-30T08:29:30.150Z,2.15
2018-01-30T08:30:36.186Z,2.19
2018-01-30T08:31:42.241Z,2.26
2018-01-30T08:32:48.267Z,2.41
2018-01-30T08:33:54.294Z,2.51
2018-01-30T08:35:00.827Z,2.58
2018-01-30T08:36:06.394Z,2.65
2018-01-30T08:37:12.438Z,2.69
2018-01-30T08:38:18.467Z,2.75
2018-01-30T08:39:24.998Z,2.82
2018-01-30T08:40:30.568Z,2.91
2018-01-30T08:41:37.136Z,3.03
2018-01-30T08:42:43.155Z,3.16
2018-01-30T08:43:48.709Z,3.27
2018-01-30T08:44:55.252Z,3.39
2018-01-30T08:46:00.810Z,3.56
2018-01-30T08:47:06.895Z,3.68
2018-01-30T08:48:13.424Z,3.74
2018-01-30T08:49:18.993Z,3.81
2018-01-30T08:50:25.060Z,3.86
2018-01-30T08:51:31.146Z,3.91
2018-01-30T08:52:37.211Z,3.97
2018-01-30T08:53:43.274Z,4.02
2018-01-30T08:54:49.843Z,4.08
2018-01-30T08:55:55.421Z,4.15
2018-01-30T08:57:01.522Z,4.12
2018-01-30T08:58:07.570Z,4.11
2018-01-30T08:59:13.660Z,4.13
2018-01-30T09:00:19.735Z,4.12
2018-01-30T09:01:25.865Z,4.10
2018-01-30T09:02:31.908Z,4.10
2018-01-30T09:03:37.989Z,4.07
2018-01-30T09:04:44.071Z,4.03
2018-01-30T09:05:50.150Z,3.95
2018-01-30T09:06:56.274Z,3.90
2018-01-30T09:08:02.832Z,3.89
2018-01-30T09:09:08.409Z,3.86
2018-01-30T09:10:14.504Z,3.84
2018-01-30T09:11:20.606Z,3.79
2018-01-30T09:12:26.665Z,3.84
2018-01-30T09:13:32.763Z,3.86
2018-01-30T09:14:38.858Z,3.91
2018-01-30T09:15:44.937Z,4.01
2018-01-30T09:16:51.036Z,4.10
2018-01-30T09:17:57.113Z,4.14
2018-01-30T09:19:03.196Z,4.12
2018-01-30T09:20:09.311Z,4.08
2018-01-30T09:21:15.889Z,4.06
2018-01-30T09:22:21.501Z,4.05
2018-01-30T09:23:27.577Z,4.05
2018-01-30T09:24:34.180Z,4.04
2018-01-30T09:25:39.757Z,4.06
2018-01-30T09:26:45.879Z,4.04
2018-01-30T09:27:51.948Z,4.05
2018-01-30T09:28:58.043Z,4.08
2018-01-30T09:30:04.152Z,4.09
2018-01-30T09:31:10.719Z,4.14
2018-01-30T09:32:16.353Z,4.21
2018-01-30T09:33:22.418Z,4.29
2018-01-30T09:34:29.027Z,4.36
2018-01-30T09:35:35.108Z,4.44
2018-01-30T09:36:41.232Z,4.56
2018-01-30T09:37:47.311Z,4.66
2018-01-30T09:38:52.933Z,4.76
2018-01-30T09:39:59.036Z,4.90
2018-01-30T09:41:05.640Z,5.11
2018-01-30T09:42:11.273Z,5.40
2018-01-30T09:43:17.366Z,5.59
2018-01-30T09:44:23.503Z,5.77
2018-01-30T09:45:29.623Z,6.08
2018-01-30T09:46:35.785Z,6.15
2018-01-30T09:47:41.864Z,6.16
2018-01-30T09:48:47.994Z,6.31
2018-01-30T09:49:54.135Z,6.54
2018-01-30T09:51:00.770Z,6.59
2018-01-30T09:52:06.440Z,6.66
2018-01-30T09:53:12.556Z,6.73
2018-01-30T09:54:18.712Z,6.89
2018-01-30T09:55:24.860Z,7.16
2018-01-30T09:56:31.032Z,7.33
2018-01-30T09:57:37.176Z,7.26
2018-01-30T09:58:43.340Z,7.16
2018-01-30T09:59:49.493Z,7.08
2018-01-30T10:00:55.659Z,7.00
2018-01-30T10:02:01.829Z,6.88
2018-01-30T10:03:07.978Z,6.78
2018-01-30T10:04:14.139Z,6.69
2018-01-30T10:05:20.303Z,6.65
2018-01-30T10:06:26.458Z,6.66
2018-01-30T10:07:32.640Z,6.63
2018-01-30T10:08:38.774Z,6.63
2018-01-30T10:09:44.947Z,6.69
2018-01-30T10:10:51.607Z,6.88
2018-01-30T10:11:57.284Z,6.98
2018-01-30T10:13:03.920Z,7.06
2018-01-30T10:14:09.604Z,7.13
2018-01-30T10:15:15.774Z,7.05
2018-01-30T10:16:21.933Z,6.98
2018-01-30T10:17:28.136Z,6.96
2018-01-30T10:18:34.773Z,6.96
2018-01-30T10:19:40.446Z,6.96
2018-01-30T10:20:46.632Z,6.98
2018-01-30T10:21:52.824Z,7.01
2018-01-30T10:22:58.972Z,7.09
2018-01-30T10:24:05.154Z,7.24
2018-01-30T10:25:11.321Z,7.40
2018-01-30T10:26:17.498Z,7.49
2018-01-30T10:27:23.727Z,7.52
2018-01-30T10:28:29.868Z,7.54
2018-01-30T10:29:36.154Z,7.60
2018-01-30T10:30:42.753Z,7.68
2018-01-30T10:31:48.489Z,7.67
2018-01-30T10:32:54.646Z,7.61
2018-01-30T10:34:00.830Z,7.53
2018-01-30T10:35:07.043Z,7.46
2018-01-30T10:36:13.225Z,7.49
2018-01-30T10:37:19.447Z,7.55
2018-01-30T10:38:25.638Z,7.58
2018-01-30T10:39:31.815Z,7.63
2018-01-30T10:40:38.001Z,7.67
2018-01-30T10:41:44.219Z,7.74
2018-01-30T10:42:50.412Z,7.87
2018-01-30T10:43:56.594Z,7.94
2018-01-30T10:45:03.302Z,7.88
2018-01-30T10:46:08.998Z,7.78
2018-01-30T10:47:16.233Z,7.76
2018-01-30T10:48:21.402Z,7.78
2018-01-30T10:49:27.617Z,7.81
2018-01-30T10:50:34.309Z,7.94
2018-01-30T10:51:40.064Z,8.08
2018-01-30T10:52:46.251Z,8.23
2018-01-30T10:53:52.456Z,8.42
2018-01-30T10:54:58.688Z,8.59
2018-01-30T10:56:04.905Z,8.73
2018-01-30T10:57:11.140Z,8.75
2018-01-30T10:58:17.857Z,8.78
2018-01-30T10:59:23.581Z,8.69
2018-01-30T11:00:29.867Z,8.61
2018-01-30T11:01:36.050Z,8.67
2018-01-30T11:02:42.301Z,8.81
2018-01-30T11:03:48.527Z,9.01
2018-01-30T11:04:55.243Z,9.18
2018-01-30T11:06:00.984Z,9.30
2018-01-30T11:07:07.748Z,9.42
2018-01-30T11:08:13.966Z,9.50
2018-01-30T11:09:19.723Z,9.52
2018-01-30T11:10:25.966Z,9.50
2018-01-30T11:11:32.212Z,9.46
2018-01-30T11:12:38.979Z,9.38
2018-01-30T11:13:44.723Z,9.28
2018-01-30T11:14:51.465Z,9.21
2018-01-30T11:15:57.223Z,9.23
2018-01-30T11:17:03.513Z,9.26
2018-01-30T11:18:09.739Z,9.36
2018-01-30T11:19:16.002Z,9.41
2018-01-30T11:20:22.256Z,9.34
2018-01-30T11:21:28.507Z,9.24
2018-01-30T11:22:34.790Z,9.27
2018-01-30T11:23:41.054Z,9.29
2018-01-30T11:24:47.281Z,9.19
2018-01-30T11:25:53.592Z,9.11
2018-01-30T11:27:00.347Z,9.09
2018-01-30T11:28:06.534Z,9.15
2018-01-30T11:29:12.312Z,9.28
2018-01-30T11:30:18.563Z,9.38
2018-01-30T11:31:24.824Z,9.47
2018-01-30T11:32:31.104Z,9.59
2018-01-30T11:33:37.328Z,9.68
2018-01-30T11:34:43.606Z,9.65
2018-01-30T11:35:49.862Z,9.64
2018-01-30T11:36:56.641Z,9.63
2018-01-30T11:38:02.409Z,9.54
2018-01-30T11:39:08.654Z,9.40
2018-01-30T11:40:14.915Z,9.16
2018-01-30T11:41:21.167Z,8.80
2018-01-30T11:42:27.922Z,8.47
2018-01-30T11:43:33.648Z,8.21
2018-01-30T11:44:39.899Z,8.05
2018-01-30T11:45:46.130Z,7.95
2018-01-30T11:46:52.370Z,7.89
2018-01-30T11:47:58.625Z,7.86
2018-01-30T11:49:04.838Z,7.86
2018-01-30T11:50:11.068Z,7.83
2018-01-30T11:51:17.292Z,7.76
2018-01-30T11:52:23.546Z,7.70
2018-01-30T11:53:30.239Z,7.66
2018-01-30T11:54:35.978Z,7.80
2018-01-30T11:55:42.698Z,8.45
2018-01-30T11:56:48.424Z,8.46
2018-01-30T11:57:54.684Z,8.38
2018-01-30T11:59:00.892Z,8.46
2018-01-30T12:00:07.119Z,9.35
2018-01-30T12:01:13.371Z,11.44
2018-01-30T12:02:19.639Z,12.79
2018-01-30T12:03:25.905Z,13.69
2018-01-30T12:04:32.183Z,14.01
2018-01-30T12:05:38.502Z,13.93
2018-01-30T12:06:44.804Z,13.28
2018-01-30T12:07:51.153Z,12.91
2018-01-30T12:08:57.467Z,12.80
2018-01-30T12:10:03.795Z,12.92
2018-01-30T12:11:10.634Z,13.26
2018-01-30T12:12:16.997Z,12.89
2018-01-30T12:13:22.825Z,12.07
2018-01-30T12:14:29.187Z,11.25
2018-01-30T12:15:35.515Z,10.67
2018-01-30T12:16:41.847Z,10.32
2018-01-30T12:17:48.188Z,10.17
2018-01-30T12:18:54.496Z,10.21
2018-01-30T12:20:00.806Z,10.90
2018-01-30T12:21:07.123Z,10.89
2018-01-30T12:22:13.479Z,10.74
2018-01-30T12:23:20.310Z,10.74
2018-01-30T12:24:26.087Z,10.78
2018-01-30T12:25:32.408Z,10.79
2018-01-30T12:26:38.708Z,10.83
2018-01-30T12:27:45.045Z,10.89
2018-01-30T12:28:51.330Z,10.94
2018-01-30T12:29:57.634Z,10.91
2018-01-30T12:31:03.979Z,10.88
2018-01-30T12:32:10.773Z,10.91
2018-01-30T12:33:16.558Z,10.96
2018-01-30T12:34:22.855Z,10.89
2018-01-30T12:35:29.162Z,10.79
2018-01-30T12:36:35.457Z,10.64
2018-01-30T12:37:41.777Z,10.55
2018-01-30T12:38:48.142Z,10.51
2018-01-30T12:39:54.365Z,10.67
2018-01-30T12:41:00.668Z,10.68
2018-01-30T12:42:06.968Z,10.70
2018-01-30T12:43:13.307Z,10.76
2018-01-30T12:44:19.571Z,10.76
2018-01-30T12:45:25.871Z,10.68
2018-01-30T12:46:32.171Z,10.96
2018-01-30T12:47:38.505Z,11.33
2018-01-30T12:48:44.807Z,11.44
2018-01-30T12:49:51.103Z,11.59
2018-01-30T12:50:57.434Z,11.98
2018-01-30T12:52:03.764Z,12.32
2018-01-30T12:53:10.127Z,12.31
2018-01-30T12:54:16.459Z,11.99
2018-01-30T12:55:22.809Z,11.74
2018-01-30T12:56:29.658Z,11.54
2018-01-30T12:57:35.528Z,11.32
2018-01-30T12:58:41.837Z,11.11
2018-01-30T12:59:48.174Z,10.95
2018-01-30T13:00:54.520Z,10.88
2018-01-30T13:02:00.845Z,10.86
2018-01-30T13:03:07.192Z,10.91
2018-01-30T13:04:13.511Z,11.26
2018-01-30T13:05:19.835Z,11.95
2018-01-30T13:06:26.171Z,12.07
2018-01-30T13:07:32.542Z,12.04
2018-01-30T13:08:38.883Z,12.00
2018-01-30T13:09:45.207Z,12.25
2018-01-30T13:10:51.563Z,12.55
2018-01-30T13:11:57.934Z,12.27
2018-01-30T13:13:04.299Z,12.02
2018-01-30T13:14:10.647Z,11.81
2018-01-30T13:15:16.990Z,11.66
2018-01-30T13:16:23.345Z,11.58
2018-01-30T13:17:30.207Z,11.60
2018-01-30T13:18:36.035Z,11.95
2018-01-30T13:19:42.385Z,12.41
2018-01-30T13:20:48.741Z,12.43
2018-01-30T13:21:55.095Z,12.79
2018-01-30T13:23:01.475Z,13.70
2018-01-30T13:24:07.840Z,14.27
2018-01-30T13:25:14.225Z,14.62
2018-01-30T13:26:20.604Z,14.92
2018-01-30T13:27:27.029Z,14.99
2018-01-30T13:28:33.444Z,14.87
2018-01-30T13:29:39.854Z,15.01
2018-01-30T13:30:46.303Z,15.24
2018-01-30T13:31:52.760Z,15.35
2018-01-30T13:32:59.251Z,15.25
2018-01-30T13:34:05.701Z,15.18
2018-01-30T13:35:12.189Z,15.07
2018-01-30T13:36:18.695Z,14.83
2018-01-30T13:37:25.220Z,14.35
2018-01-30T13:38:31.694Z,13.84
2018-01-30T13:39:38.180Z,13.68
2018-01-30T13:40:44.652Z,13.44
2018-01-30T13:41:51.138Z,13.10
2018-01-30T13:42:57.614Z,12.76
2018-01-30T13:44:04.061Z,12.44
2018-01-30T13:45:10.500Z,12.22
2018-01-30T13:46:16.922Z,12.33
2018-01-30T13:47:23.369Z,12.89
2018-01-30T13:48:29.814Z,13.37
2018-01-30T13:49:36.254Z,13.85
2018-01-30T13:50:42.693Z,13.71
2018-01-30T13:51:49.151Z,13.41
2018-01-30T13:52:56.174Z,13.20
2018-01-30T13:54:02.028Z,12.93
2018-01-30T13:55:09.459Z,12.52
2018-01-30T13:56:14.895Z,12.04
2018-01-30T13:57:21.316Z,11.69
2018-01-30T13:58:27.747Z,11.59
2018-01-30T13:59:34.128Z,11.49
2018-01-30T14:00:40.520Z,11.35
2018-01-30T14:01:46.913Z,11.23
2018-01-30T14:02:53.318Z,11.24
2018-01-30T14:03:59.693Z,11.38
2018-01-30T14:05:06.156Z,11.32
2018-01-30T14:06:12.947Z,11.29
2018-01-30T14:07:19.331Z,11.47
2018-01-30T14:08:25.201Z,11.40
2018-01-30T14:09:31.549Z,11.36
2018-01-30T14:10:37.927Z,11.24
2018-01-30T14:11:44.297Z,11.17
2018-01-30T14:12:50.674Z,11.12
2018-01-30T14:13:57.031Z,11.10
2018-01-30T14:15:03.388Z,11.16
2018-01-30T14:16:09.750Z,11.45
2018-01-30T14:17:16.614Z,11.50
2018-01-30T14:18:22.486Z,11.44
2018-01-30T14:19:28.824Z,11.60
2018-01-30T14:20:35.690Z,11.92
2018-01-30T14:21:41.554Z,12.21
2018-01-30T14:22:47.950Z,12.36
2018-01-30T14:23:54.801Z,12.34
2018-01-30T14:25:00.685Z,12.31
2018-01-30T14:26:07.577Z,12.36
2018-01-30T14:27:13.448Z,12.37
2018-01-30T14:28:19.865Z,12.71
2018-01-30T14:29:26.223Z,13.02
2018-01-30T14:30:33.090Z,13.13